createdAt,value
2022-11-19T00:01:06.942Z,96174.09
2022-11-19T00:03:35.406Z,96155.09
2022-11-19T00:06:05.731Z,96155.63
2022-11-19T00:08:32.809Z,96160.75
2022-11-19T00:11:12.748Z,96159.97
2022-11-19T00:13:41.370Z,96151.25
2022-11-19T00:16:11.771Z,96159.16
2022-11-19T00:18:38.822Z,96173.06
2022-11-19T00:21:13.503Z,96180.50
2022-11-19T00:23:40.249Z,96178.44
2022-11-19T00:26:11.823Z,96184.84
2022-11-19T00:28:38.975Z,96184.31
2022-11-19T00:31:13.940Z,96189.72
2022-11-19T00:33:42.049Z,96185.88
2022-11-19T00:36:11.958Z,96195.88
2022-11-19T00:38:38.505Z,96200.22
2022-11-19T00:41:06.040Z,96201.72
2022-11-19T00:43:48.086Z,96212.56
2022-11-19T00:46:19.903Z,96214.13
2022-11-19T00:48:47.871Z,96218.72
2022-11-19T00:51:15.509Z,96228.25
2022-11-19T00:53:42.137Z,96221.56
2022-11-19T00:56:14.198Z,96224.38
2022-11-19T00:58:41.638Z,96220.53
2022-11-19T01:01:08.918Z,96227.47
2022-11-19T01:03:36.166Z,96228.78
2022-11-19T01:06:02.749Z,96223.13
2022-11-19T01:08:29.799Z,96226.47
2022-11-19T01:10:56.382Z,96230.31
2022-11-19T01:13:34.871Z,96229.25
2022-11-19T01:16:06.526Z,96246.63
2022-11-19T01:18:34.044Z,96243.16
2022-11-19T01:21:00.631Z,96242.63
2022-11-19T01:23:27.309Z,96236.66
2022-11-19T01:25:53.809Z,96242.63
2022-11-19T01:28:20.551Z,96233.31
2022-11-19T01:30:47.525Z,96242.94
2022-11-19T01:33:14.250Z,96247.03
2022-11-19T01:35:40.964Z,96247.56
2022-11-19T01:38:07.756Z,96239.88
2022-11-19T01:40:42.300Z,96231.59
2022-11-19T01:43:13.523Z,96230.50
2022-11-19T01:45:48.890Z,96223.28
2022-11-19T01:48:26.388Z,96222.97
2022-11-19T01:51:08.366Z,96223.44
2022-11-19T01:53:36.812Z,96239.59
2022-11-19T01:56:06.662Z,96241.16
2022-11-19T01:58:38.221Z,96246.47
2022-11-19T02:01:06.177Z,96252.22
2022-11-19T02:03:33.770Z,96253.31
2022-11-19T02:06:02.802Z,96258.25
2022-11-19T02:08:43.198Z,96268.88
2022-11-19T02:11:37.901Z,96283.66
2022-11-19T02:14:35.426Z,96274.13
2022-11-19T02:17:06.288Z,96274.19
2022-11-19T02:19:57.410Z,96263.66
2022-11-19T02:23:02.676Z,96265.81
2022-11-19T02:25:44.413Z,96264.84
2022-11-19T02:28:10.897Z,96262.88
2022-11-19T02:30:41.753Z,96254.13
2022-11-19T02:33:17.321Z,96256.44
2022-11-19T02:35:49.726Z,96266.59
2022-11-19T02:38:33.104Z,96273.84
2022-11-19T02:41:26.249Z,96266.88
2022-11-19T02:44:20.572Z,96283.56
2022-11-19T02:46:50.363Z,96293.25
2022-11-19T02:49:21.411Z,96297.41
2022-11-19T02:51:49.390Z,96300.00
2022-11-19T02:54:19.383Z,96296.22
2022-11-19T02:56:49.241Z,96301.72
2022-11-19T02:59:39.835Z,96299.75
2022-11-19T03:02:27.430Z,96309.81
2022-11-19T03:04:55.630Z,96302.22
2022-11-19T03:07:22.578Z,96313.25
2022-11-19T03:09:55.724Z,96313.25
2022-11-19T03:12:37.468Z,96337.69
2022-11-19T03:15:40.707Z,96341.56
2022-11-19T03:18:17.896Z,96329.25
2022-11-19T03:20:52.113Z,96340.38
2022-11-19T03:23:24.150Z,96330.84
2022-11-19T03:25:58.419Z,96346.22
2022-11-19T03:28:33.145Z,96351.63
2022-11-19T03:31:00.995Z,96356.50
2022-11-19T03:33:35.468Z,96354.97
2022-11-19T03:36:10.839Z,96364.16
2022-11-19T03:38:44.445Z,96366.97
2022-11-19T03:41:15.321Z,96378.03
2022-11-19T03:43:45.446Z,96376.75
2022-11-19T03:46:16.555Z,96378.78
2022-11-19T03:48:47.428Z,96385.03
2022-11-19T03:51:20.781Z,96386.56
2022-11-19T03:53:48.729Z,96391.97
2022-11-19T03:56:21.893Z,96393.94
2022-11-19T03:58:48.446Z,96395.56
2022-11-19T04:01:15.918Z,96398.19
2022-11-19T04:04:02.517Z,96399.03
2022-11-19T04:06:29.033Z,96399.31
2022-11-19T04:08:55.549Z,96400.06
2022-11-19T04:13:47.437Z,96395.28
2022-11-19T04:16:13.939Z,96394.94
2022-11-19T04:18:40.620Z,96400.22
2022-11-19T04:21:07.199Z,96401.56
2022-11-19T04:23:33.693Z,96410.69
2022-11-19T04:26:00.224Z,96406.13
2022-11-19T04:28:26.788Z,96408.47
2022-11-19T04:30:53.399Z,96411.28
2022-11-19T04:33:19.967Z,96411.97
2022-11-19T04:35:46.502Z,96414.78
2022-11-19T04:38:13.196Z,96425.25
2022-11-19T04:40:39.729Z,96424.75
2022-11-19T04:43:06.266Z,96427.56
2022-11-19T04:45:32.905Z,96425.72
2022-11-19T04:47:59.479Z,96430.78
2022-11-19T04:50:26.037Z,96430.22
2022-11-19T04:52:52.590Z,96436.84
2022-11-19T04:55:19.088Z,96436.28
2022-11-19T04:57:46.325Z,96436.00
2022-11-19T05:00:13.538Z,96450.25
2022-11-19T05:02:40.030Z,96446.53
2022-11-19T05:05:07.167Z,96456.34
2022-11-19T05:07:33.715Z,96459.44
2022-11-19T05:10:00.325Z,96461.97
2022-11-19T05:12:26.947Z,96464.47
2022-11-19T05:14:53.462Z,96474.19
2022-11-19T05:17:20.160Z,96475.06
2022-11-19T05:19:46.699Z,96487.88
2022-11-19T05:22:13.251Z,96485.81
2022-11-19T05:24:39.786Z,96487.09
2022-11-19T05:27:06.363Z,96479.81
2022-11-19T05:29:32.990Z,96486.41
2022-11-19T05:31:59.548Z,96480.78
2022-11-19T05:34:26.081Z,96476.22
2022-11-19T05:36:52.627Z,96485.06
2022-11-19T05:39:22.250Z,96490.50
2022-11-19T05:41:49.141Z,96495.72
2022-11-19T05:44:15.690Z,96502.13
2022-11-19T05:46:42.229Z,96505.25
2022-11-19T05:49:08.738Z,96503.41
2022-11-19T05:51:35.844Z,96506.22
2022-11-19T05:54:02.456Z,96497.88
2022-11-19T05:56:29.040Z,96501.47
2022-11-19T05:58:55.645Z,96526.59
2022-11-19T06:01:30.119Z,96516.69
2022-11-19T06:03:58.021Z,96525.63
2022-11-19T06:06:25.605Z,96528.72
2022-11-19T06:08:52.127Z,96523.56
2022-11-19T06:11:37.461Z,96532.78
2022-11-19T06:14:04.085Z,96547.16
2022-11-19T06:16:30.724Z,96558.31
2022-11-19T06:18:57.265Z,96546.41
2022-11-19T06:21:23.764Z,96552.78
2022-11-19T06:23:50.331Z,96555.13
2022-11-19T06:26:27.985Z,96564.44
2022-11-19T06:28:55.219Z,96578.00
2022-11-19T06:31:22.489Z,96577.63
2022-11-19T06:33:49.275Z,96579.56
2022-11-19T06:36:15.801Z,96573.72
2022-11-19T06:38:42.382Z,96577.44
2022-11-19T06:41:08.890Z,96589.09
2022-11-19T06:43:35.417Z,96592.59
2022-11-19T06:46:02.123Z,96597.63
2022-11-19T06:48:28.704Z,96591.97
2022-11-19T06:50:55.223Z,96579.91
2022-11-19T06:53:21.817Z,96594.28
2022-11-19T06:55:48.502Z,96597.94
2022-11-19T06:58:15.387Z,96603.75
2022-11-19T07:00:42.181Z,96614.84
2022-11-19T07:03:09.120Z,96614.22
2022-11-19T07:05:35.636Z,96612.38
2022-11-19T07:08:03.458Z,96609.53
2022-11-19T07:10:31.677Z,96604.09
2022-11-19T07:12:58.364Z,96606.84
2022-11-19T07:15:26.145Z,96623.75
2022-11-19T07:17:52.740Z,96612.06
2022-11-19T07:20:19.285Z,96627.41
2022-11-19T07:22:45.880Z,96624.00
2022-11-19T07:25:13.153Z,96631.31
2022-11-19T07:27:40.882Z,96633.88
2022-11-19T07:30:08.368Z,96633.88
2022-11-19T07:32:34.877Z,96643.06
2022-11-19T07:35:01.773Z,96644.38
2022-11-19T07:37:28.318Z,96644.81
2022-11-19T07:39:54.865Z,96647.28
2022-11-19T07:42:40.001Z,96641.13
2022-11-19T07:45:07.247Z,96658.72
2022-11-19T07:47:34.722Z,96664.81
2022-11-19T07:50:01.361Z,96653.63
2022-11-19T07:52:27.883Z,96648.22
2022-11-19T07:54:54.543Z,96647.38
2022-11-19T07:57:24.582Z,96649.00
2022-11-19T07:59:53.895Z,96641.09
2022-11-19T08:02:20.388Z,96641.41
2022-11-19T08:04:46.898Z,96644.50
2022-11-19T08:07:13.456Z,96641.25
2022-11-19T08:09:39.971Z,96651.47
2022-11-19T08:12:06.790Z,96659.94
2022-11-19T08:14:33.329Z,96667.34
2022-11-19T08:17:18.198Z,96670.50
2022-11-19T08:19:44.710Z,96676.91
2022-11-19T08:22:11.848Z,96681.81
2022-11-19T08:24:38.705Z,96676.38
2022-11-19T08:27:05.581Z,96669.03
2022-11-19T08:29:32.346Z,96665.31
2022-11-19T08:31:58.902Z,96655.22
2022-11-19T08:34:25.465Z,96663.56
2022-11-19T08:36:52.172Z,96661.47
2022-11-19T08:39:18.750Z,96654.66
2022-11-19T08:42:04.022Z,96643.81
2022-11-19T08:44:30.573Z,96631.34
2022-11-19T08:46:57.246Z,96635.91
2022-11-19T08:49:23.919Z,96643.44
2022-11-19T08:51:50.477Z,96629.97
2022-11-19T08:54:17.445Z,96644.22
2022-11-19T08:56:44.152Z,96656.75
2022-11-19T08:59:10.710Z,96661.06
2022-11-19T09:01:37.249Z,96665.00
2022-11-19T09:04:03.907Z,96669.00
2022-11-19T09:06:30.572Z,96670.19
2022-11-19T09:08:58.461Z,96689.72
2022-11-19T09:11:25.566Z,96683.56
2022-11-19T09:13:52.094Z,96686.31
2022-11-19T09:16:18.689Z,96681.22
2022-11-19T09:18:45.251Z,96697.63
2022-11-19T09:21:12.704Z,96675.50
2022-11-19T09:23:41.455Z,96671.44
2022-11-19T09:26:16.671Z,96662.59
2022-11-19T09:28:43.971Z,96660.19
2022-11-19T09:31:13.469Z,96658.94
2022-11-19T09:33:42.312Z,96662.13
2022-11-19T09:36:10.678Z,96659.03
2022-11-19T09:38:37.886Z,96661.88
2022-11-19T09:41:49.166Z,96663.78
2022-11-19T09:44:54.828Z,96654.19
2022-11-19T09:47:29.839Z,96658.94
2022-11-19T09:49:59.335Z,96664.13
2022-11-19T09:52:33.814Z,96657.22
2022-11-19T09:55:00.927Z,96642.78
2022-11-19T09:57:36.854Z,96652.31
2022-11-19T10:00:06.590Z,96650.59
2022-11-19T10:02:33.204Z,96649.28
2022-11-19T10:04:59.868Z,96633.78
2022-11-19T10:07:44.310Z,96633.53
2022-11-19T10:10:42.326Z,96636.91
2022-11-19T10:13:50.631Z,96638.72
2022-11-19T10:16:30.543Z,96630.19
2022-11-19T10:19:06.146Z,96626.81
2022-11-19T10:21:43.233Z,96620.88
2022-11-19T10:24:29.233Z,96633.53
2022-11-19T10:27:01.961Z,96631.97
2022-11-19T10:29:38.059Z,96614.69
2022-11-19T10:32:41.711Z,96597.63
2022-11-19T10:35:16.713Z,96602.53
2022-11-19T10:38:05.829Z,96612.34
2022-11-19T10:40:41.177Z,96596.31
2022-11-19T10:43:22.017Z,96590.31
2022-11-19T10:45:49.937Z,96579.19
2022-11-19T10:48:23.106Z,96585.59
2022-11-19T10:50:50.779Z,96601.31
2022-11-19T10:53:21.175Z,96595.28
2022-11-19T10:55:55.024Z,96601.44
2022-11-19T10:58:40.973Z,96604.50
2022-11-19T11:01:18.048Z,96595.03
2022-11-19T11:03:54.766Z,96586.81
2022-11-19T11:06:21.478Z,96591.53
2022-11-19T11:08:49.760Z,96576.50
2022-11-19T11:11:52.514Z,96572.13
2022-11-19T11:14:40.996Z,96573.78
2022-11-19T11:17:30.112Z,96572.38
2022-11-19T11:20:08.693Z,96569.31
2022-11-19T11:22:36.034Z,96561.22
2022-11-19T11:25:07.105Z,96569.78
2022-11-19T11:27:35.586Z,96563.91
2022-11-19T11:30:16.225Z,96539.66
2022-11-19T11:32:43.167Z,96538.47
2022-11-19T11:35:34.707Z,96537.50
2022-11-19T11:38:02.735Z,96542.31
2022-11-19T11:40:30.509Z,96539.88
2022-11-19T11:42:58.035Z,96557.84
2022-11-19T11:45:36.320Z,96553.66
2022-11-19T11:48:16.184Z,96542.81
2022-11-19T11:50:45.633Z,96543.59
2022-11-19T11:53:15.770Z,96555.13
2022-11-19T11:55:43.635Z,96547.50
2022-11-19T11:58:30.757Z,96554.84
2022-11-19T12:01:20.168Z,96566.25
2022-11-19T12:03:58.512Z,96561.16
2022-11-19T12:06:36.057Z,96559.00
2022-11-19T12:09:14.678Z,96564.72
2022-11-19T12:11:57.918Z,96574.41
2022-11-19T12:14:36.583Z,96561.41
2022-11-19T12:17:26.222Z,96565.00
2022-11-19T12:20:08.361Z,96567.38
2022-11-19T12:22:34.794Z,96573.16
2022-11-19T12:25:07.109Z,96567.00
2022-11-19T12:27:33.591Z,96579.72
2022-11-19T12:30:18.331Z,96575.81
2022-11-19T12:32:53.745Z,96579.69
2022-11-19T12:35:33.282Z,96583.31
2022-11-19T12:38:05.673Z,96565.84
2022-11-19T12:41:03.389Z,96569.16
2022-11-19T12:43:53.891Z,96565.19
2022-11-19T12:46:49.506Z,96561.19
2022-11-19T12:49:40.967Z,96552.31
2022-11-19T12:52:22.727Z,96559.00
2022-11-19T12:55:01.303Z,96568.34
2022-11-19T12:57:33.935Z,96569.25
2022-11-19T13:00:20.098Z,96577.03
2022-11-19T13:03:05.379Z,96560.84
2022-11-19T13:05:47.014Z,96570.22
2022-11-19T13:08:16.481Z,96571.31
2022-11-19T13:10:48.689Z,96578.06
2022-11-19T13:13:21.555Z,96576.53
2022-11-19T13:16:12.880Z,96568.53
2022-11-19T13:18:44.239Z,96557.13
2022-11-19T13:21:25.524Z,96568.25
2022-11-19T13:23:54.214Z,96567.75
2022-11-19T13:26:27.143Z,96574.03
2022-11-19T13:29:13.268Z,96571.38
2022-11-19T13:31:51.420Z,96571.47
2022-11-19T13:34:43.333Z,96575.31
2022-11-19T13:37:16.079Z,96576.66
2022-11-19T13:39:55.952Z,96575.09
2022-11-19T13:42:42.485Z,96595.81
2022-11-19T13:45:18.242Z,96585.94
2022-11-19T13:47:59.449Z,96589.00
2022-11-19T13:50:33.184Z,96591.03
2022-11-19T13:53:39.408Z,96591.03
2022-11-19T13:56:13.885Z,96595.63
2022-11-19T13:58:47.622Z,96600.88
2022-11-19T14:01:40.253Z,96608.13
2022-11-19T14:04:18.363Z,96620.28
2022-11-19T14:06:44.882Z,96625.50
2022-11-19T14:09:36.274Z,96620.09
2022-11-19T14:12:08.199Z,96627.91
2022-11-19T14:15:02.406Z,96626.38
2022-11-19T14:18:26.810Z,96626.38
2022-11-19T14:21:11.796Z,96620.78
2022-11-19T14:24:02.585Z,96618.66
2022-11-19T14:26:41.242Z,96611.97
2022-11-19T14:29:27.720Z,96601.06
2022-11-19T14:32:00.058Z,96599.25
2022-11-19T14:34:32.773Z,96601.06
2022-11-19T14:37:03.957Z,96596.00
2022-11-19T14:39:32.814Z,96600.97
2022-11-19T14:42:13.389Z,96604.31
2022-11-19T14:44:39.950Z,96593.38
2022-11-19T14:47:30.117Z,96602.16
2022-11-19T14:50:01.414Z,96601.44
2022-11-19T14:52:39.617Z,96593.19
2022-11-19T14:55:26.648Z,96602.56
2022-11-19T14:58:04.596Z,96591.19
2022-11-19T15:00:35.259Z,96591.00
2022-11-19T15:03:05.672Z,96597.75
2022-11-19T15:05:35.672Z,96594.63
2022-11-19T15:08:17.632Z,96580.63
2022-11-19T15:11:08.658Z,96588.88
2022-11-19T15:13:40.702Z,96593.50
2022-11-19T15:16:14.888Z,96599.25
2022-11-19T15:18:41.481Z,96593.81
2022-11-19T15:21:26.244Z,96595.28
2022-11-19T15:27:57.515Z,96602.75
2022-11-19T15:30:45.341Z,96604.31
2022-11-19T15:33:37.173Z,96606.59
2022-11-19T15:36:22.515Z,96598.31
2022-11-19T15:39:12.359Z,96601.06
2022-11-19T15:42:00.313Z,96600.59
2022-11-19T15:44:50.477Z,96606.03
2022-11-19T15:47:44.435Z,96607.56
2022-11-19T15:50:19.007Z,96616.16
2022-11-19T15:52:58.909Z,96608.97
2022-11-19T15:55:29.037Z,96614.91
2022-11-19T15:58:00.269Z,96618.47
2022-11-19T16:00:26.993Z,96610.47
2022-11-19T16:02:54.030Z,96614.03
2022-11-19T16:05:27.844Z,96605.72
2022-11-19T16:07:54.569Z,96616.41
2022-11-19T16:10:34.288Z,96621.88
2022-11-19T16:13:22.013Z,96620.59
2022-11-19T16:16:12.732Z,96611.84
2022-11-19T16:18:47.429Z,96609.53
2022-11-19T16:21:20.606Z,96602.28
2022-11-19T16:24:06.118Z,96608.44
2022-11-19T16:26:40.434Z,96606.44
2022-11-19T16:29:11.154Z,96603.47
2022-11-19T16:31:37.710Z,96614.59
2022-11-19T16:34:04.296Z,96611.28
2022-11-19T16:36:32.074Z,96608.94
2022-11-19T16:38:59.262Z,96608.44
2022-11-19T16:41:44.922Z,96608.94
2022-11-19T16:44:14.590Z,96614.94
2022-11-19T16:46:41.232Z,96608.22
2022-11-19T16:49:49.086Z,96610.31
2022-11-19T16:52:37.252Z,96615.50
2022-11-19T16:55:06.947Z,96622.47
2022-11-19T16:57:33.554Z,96628.13
2022-11-19T17:00:18.731Z,96621.13
2022-11-19T17:02:46.611Z,96614.75
2022-11-19T17:05:16.375Z,96634.69
2022-11-19T17:07:47.560Z,96619.91
2022-11-19T17:10:14.028Z,96630.59
2022-11-19T17:13:14.726Z,96660.31
2022-11-19T17:15:43.760Z,96674.84
2022-11-19T17:18:10.363Z,96654.97
2022-11-19T17:20:48.466Z,96670.50
2022-11-19T17:23:23.406Z,96673.41
2022-11-19T17:25:55.650Z,96658.91
2022-11-19T17:28:45.432Z,96665.19
2022-11-19T17:31:24.075Z,96647.94
2022-11-19T17:34:06.646Z,96643.03
2022-11-19T17:36:33.274Z,96644.38
2022-11-19T17:38:59.878Z,96660.66
2022-11-19T17:41:47.873Z,96667.97
2022-11-19T17:44:39.159Z,96657.41
2022-11-19T17:47:22.264Z,96666.00
2022-11-19T17:49:50.462Z,96661.59
2022-11-19T17:52:20.246Z,96674.28
2022-11-19T17:54:48.317Z,96678.13
2022-11-19T17:57:14.896Z,96687.91
2022-11-19T17:59:41.446Z,96700.34
2022-11-19T18:02:16.375Z,96692.56
2022-11-19T18:04:47.582Z,96693.34
2022-11-19T18:07:14.613Z,96681.94
2022-11-19T18:09:41.317Z,96677.31
2022-11-19T18:12:15.133Z,96679.94
2022-11-19T18:14:42.324Z,96683.56
2022-11-19T18:17:13.385Z,96677.16
2022-11-19T18:19:40.591Z,96710.53
2022-11-19T18:22:13.163Z,96699.91
2022-11-19T18:24:39.692Z,96700.97
2022-11-19T18:27:06.241Z,96694.75
2022-11-19T18:29:33.624Z,96702.50
2022-11-19T18:32:00.030Z,96702.78
2022-11-19T18:34:26.657Z,96699.16
2022-11-19T18:36:54.206Z,96703.31
2022-11-19T18:39:21.084Z,96691.94
2022-11-19T18:41:47.844Z,96701.00
2022-11-19T18:44:34.773Z,96693.28
2022-11-19T18:47:01.200Z,96706.16
2022-11-19T18:49:27.897Z,96699.94
2022-11-19T18:51:54.597Z,96680.88
2022-11-19T18:54:21.249Z,96689.41
2022-11-19T18:56:48.066Z,96695.88
2022-11-19T18:59:14.963Z,96681.41
2022-11-19T19:01:41.888Z,96678.84
2022-11-19T19:04:14.287Z,96690.97
2022-11-19T19:06:41.671Z,96676.53
2022-11-19T19:09:10.429Z,96674.44
2022-11-19T19:11:56.901Z,96683.50
2022-11-19T19:14:23.494Z,96684.75
2022-11-19T19:17:08.028Z,96682.19
2022-11-19T19:19:34.554Z,96673.69
2022-11-19T19:22:01.191Z,96687.09
2022-11-19T19:24:28.082Z,96663.59
2022-11-19T19:26:54.730Z,96682.94
2022-11-19T19:29:21.639Z,96672.38
2022-11-19T19:31:48.559Z,96679.59
2022-11-19T19:34:15.340Z,96670.31
2022-11-19T19:36:46.450Z,96675.44
2022-11-19T19:39:16.803Z,96672.59
2022-11-19T19:41:43.839Z,96672.59
2022-11-19T19:44:11.060Z,96681.94
2022-11-19T19:46:37.517Z,96680.13
2022-11-19T19:49:04.071Z,96680.38
2022-11-19T19:51:32.783Z,96675.75
2022-11-19T19:53:59.779Z,96678.84
2022-11-19T19:56:31.284Z,96686.84
2022-11-19T19:58:59.067Z,96677.81
2022-11-19T20:01:28.462Z,96681.94
2022-11-19T20:04:03.712Z,96676.25
2022-11-19T20:06:31.003Z,96686.09
2022-11-19T20:08:57.848Z,96670.06
2022-11-19T20:11:25.986Z,96676.53
2022-11-19T20:13:54.534Z,96674.19
2022-11-19T20:16:26.861Z,96689.91
2022-11-19T20:18:54.483Z,96673.66
2022-11-19T20:21:23.659Z,96676.00
2022-11-19T20:23:50.595Z,96671.59
2022-11-19T20:26:25.823Z,96667.19
2022-11-19T20:28:59.815Z,96666.66
2022-11-19T20:31:27.794Z,96660.47
2022-11-19T20:33:57.407Z,96647.06
2022-11-19T20:36:25.612Z,96671.06
2022-11-19T20:38:52.695Z,96656.34
2022-11-19T20:41:40.412Z,96644.75
2022-11-19T20:44:20.397Z,96646.06
2022-11-19T20:46:50.887Z,96645.28
2022-11-19T20:49:19.634Z,96654.06
2022-11-19T20:51:46.879Z,96640.91
2022-11-19T20:54:13.531Z,96633.16
2022-11-19T20:56:40.854Z,96640.38
2022-11-19T20:59:07.435Z,96650.44
2022-11-19T21:01:35.122Z,96642.19
2022-11-19T21:04:02.273Z,96631.59
2022-11-19T21:06:29.083Z,96645.00
2022-11-19T21:08:56.797Z,96626.63
2022-11-19T21:11:24.154Z,96638.25
2022-11-19T21:13:50.750Z,96641.06
2022-11-19T21:16:25.468Z,96629.72
2022-11-19T21:18:52.361Z,96614.44
2022-11-19T21:21:21.534Z,96621.94
2022-11-19T21:23:48.136Z,96627.34
2022-11-19T21:26:17.453Z,96621.44
2022-11-19T21:28:46.934Z,96628.66
2022-11-19T21:31:18.673Z,96624.06
2022-11-19T21:33:46.007Z,96630.03
2022-11-19T21:36:13.532Z,96618.16
2022-11-19T21:38:40.790Z,96632.31
2022-11-19T21:41:07.553Z,96619.66
2022-11-19T21:43:34.134Z,96608.03
2022-11-19T21:46:00.697Z,96599.00
2022-11-19T21:48:27.369Z,96603.09
2022-11-19T21:50:54.489Z,96603.84
2022-11-19T21:53:21.124Z,96603.06
2022-11-19T21:55:48.250Z,96602.28
2022-11-19T21:58:15.759Z,96607.47
2022-11-19T22:00:43.814Z,96599.69
2022-11-19T22:03:10.628Z,96584.19
2022-11-19T22:05:37.129Z,96586.22
2022-11-19T22:08:03.804Z,96575.34
2022-11-19T22:10:30.465Z,96594.22
2022-11-19T22:12:58.731Z,96593.19
2022-11-19T22:15:26.748Z,96589.59
2022-11-19T22:17:53.604Z,96594.00
2022-11-19T22:20:20.196Z,96589.84
2022-11-19T22:22:46.779Z,96589.91
2022-11-19T22:25:13.796Z,96594.56
2022-11-19T22:27:41.826Z,96568.22
2022-11-19T22:30:10.253Z,96570.31
2022-11-19T22:32:36.921Z,96584.75
2022-11-19T22:35:04.005Z,96570.31
2022-11-19T22:37:30.574Z,96578.09
2022-11-19T22:39:57.158Z,96581.69
2022-11-19T22:42:23.741Z,96578.84
2022-11-19T22:44:51.268Z,96571.34
2022-11-19T22:47:17.832Z,96568.00
2022-11-19T22:49:44.455Z,96587.88
2022-11-19T22:52:11.085Z,96591.50
2022-11-19T22:54:41.576Z,96589.44
2022-11-19T22:57:08.862Z,96597.72
2022-11-19T22:59:35.872Z,96597.72
2022-11-19T23:02:02.793Z,96616.31
2022-11-19T23:04:29.463Z,96615.53
2022-11-19T23:06:56.719Z,96603.91
2022-11-19T23:09:23.584Z,96605.72
2022-11-19T23:12:08.665Z,96625.06
2022-11-19T23:14:35.203Z,96634.09
2022-11-19T23:17:01.780Z,96636.16
2022-11-19T23:19:28.394Z,96632.81
2022-11-19T23:21:54.952Z,96621.44
2022-11-19T23:24:21.500Z,96629.22
2022-11-19T23:26:48.096Z,96630.50
2022-11-19T23:29:14.643Z,96637.97
2022-11-19T23:31:41.309Z,96634.88
2022-11-19T23:34:08.317Z,96631.78
2022-11-19T23:36:37.963Z,96643.94
2022-11-19T23:39:06.042Z,96651.44
2022-11-19T23:41:33.926Z,96641.88
2022-11-19T23:44:00.705Z,96650.38
2022-11-19T23:46:32.739Z,96642.66
2022-11-19T23:48:59.933Z,96633.09
2022-11-19T23:51:28.982Z,96633.34
2022-11-19T23:53:55.748Z,96627.44
2022-11-19T23:56:23.357Z,96633.88
2022-11-19T23:58:50.201Z,96644.47
